createdAt,value
2022-09-18T00:01:16.154Z,99.90
2022-09-18T00:03:43.447Z,99.90
2022-09-18T00:06:13.801Z,99.90
2022-09-18T00:08:41.061Z,99.90
2022-09-18T00:11:09.159Z,99.90
2022-09-18T00:13:38.121Z,99.90
2022-09-18T00:16:06.438Z,99.90
2022-09-18T00:18:33.596Z,99.90
2022-09-18T00:21:08.586Z,99.90
2022-09-18T00:23:35.958Z,99.90
2022-09-18T00:26:03.621Z,99.90
2022-09-18T00:28:30.345Z,99.90
2022-09-18T00:31:09.036Z,99.90
2022-09-18T00:33:36.067Z,99.90
2022-09-18T00:36:05.937Z,99.90
2022-09-18T00:38:32.852Z,99.90
2022-09-18T00:41:01.248Z,99.90
2022-09-18T00:43:30.734Z,99.90
2022-09-18T00:46:25.361Z,99.90
2022-09-18T00:49:04.867Z,99.90
2022-09-18T00:51:34.322Z,99.90
2022-09-18T00:54:10.734Z,99.90
2022-09-18T00:56:38.381Z,99.90
2022-09-18T00:59:05.453Z,99.90
2022-09-18T01:01:32.212Z,99.90
2022-09-18T01:03:58.995Z,99.90
2022-09-18T01:06:42.705Z,99.90
2022-09-18T01:09:32.950Z,99.90
2022-09-18T01:12:24.331Z,99.90
2022-09-18T01:15:24.342Z,99.90
2022-09-18T01:18:09.863Z,99.90
2022-09-18T01:21:04.724Z,99.90
2022-09-18T01:24:06.582Z,99.90
2022-09-18T01:26:45.283Z,99.90
2022-09-18T01:29:15.960Z,99.90
2022-09-18T01:31:54.337Z,99.90
2022-09-18T01:34:47.271Z,99.90
2022-09-18T01:37:31.066Z,99.90
2022-09-18T01:40:12.943Z,99.90
2022-09-18T01:42:42.310Z,99.90
2022-09-18T01:45:14.722Z,99.90
2022-09-18T01:47:57.674Z,99.90
2022-09-18T01:50:27.841Z,99.90
2022-09-18T01:53:21.237Z,99.90
2022-09-18T01:56:01.598Z,99.90
2022-09-18T01:58:30.514Z,99.90
2022-09-18T02:01:01.019Z,99.90
2022-09-18T02:03:39.508Z,99.90
2022-09-18T02:06:15.172Z,99.90
2022-09-18T02:08:48.134Z,99.90
2022-09-18T02:11:17.779Z,99.90
2022-09-18T02:14:00.381Z,99.90
2022-09-18T02:16:39.398Z,99.90
2022-09-18T02:19:15.272Z,99.90
2022-09-18T02:21:43.525Z,99.90
2022-09-18T02:24:12.115Z,99.90
2022-09-18T02:26:40.975Z,99.90
2022-09-18T02:29:12.310Z,99.90
2022-09-18T02:31:40.304Z,99.90
2022-09-18T02:34:09.220Z,99.90
2022-09-18T02:37:06.628Z,99.90
2022-09-18T02:39:52.374Z,99.90
2022-09-18T02:42:30.781Z,99.90
2022-09-18T02:45:03.184Z,99.90
2022-09-18T02:47:51.308Z,99.90
2022-09-18T02:50:50.224Z,99.90
2022-09-18T02:53:27.716Z,99.90
2022-09-18T02:56:22.755Z,99.90
2022-09-18T02:59:05.016Z,99.90
2022-09-18T03:01:33.597Z,99.90
2022-09-18T03:04:14.879Z,99.90
2022-09-18T03:06:41.834Z,99.90
2022-09-18T03:09:08.641Z,99.90
2022-09-18T03:11:35.400Z,99.90
2022-09-18T03:14:02.051Z,99.90
2022-09-18T03:16:28.811Z,99.90
2022-09-18T03:18:55.561Z,99.90
2022-09-18T03:21:22.261Z,99.90
2022-09-18T03:23:48.881Z,99.90
2022-09-18T03:26:15.916Z,99.90
2022-09-18T03:28:44.329Z,99.90
2022-09-18T03:31:11.777Z,99.90
2022-09-18T03:33:39.043Z,99.90
2022-09-18T03:36:06.546Z,99.90
2022-09-18T03:38:34.102Z,99.90
2022-09-18T03:41:00.913Z,99.90
2022-09-18T03:43:27.622Z,99.90
2022-09-18T03:45:54.301Z,99.90
2022-09-18T03:48:21.074Z,99.90
2022-09-18T03:50:51.113Z,99.90
2022-09-18T03:53:17.892Z,99.90
2022-09-18T03:55:44.558Z,99.90
2022-09-18T03:58:11.214Z,99.90
2022-09-18T04:00:37.918Z,99.90
2022-09-18T04:03:05.007Z,99.90
2022-09-18T04:05:31.920Z,99.90
2022-09-18T04:07:59.201Z,99.90
2022-09-18T04:10:27.175Z,99.90
2022-09-18T04:12:53.832Z,99.90
2022-09-18T04:15:20.592Z,99.90
2022-09-18T04:17:47.456Z,99.90
2022-09-18T04:20:14.329Z,99.90
2022-09-18T04:22:41.545Z,99.90
2022-09-18T04:25:08.716Z,99.90
2022-09-18T04:27:36.324Z,99.90
2022-09-18T04:30:03.308Z,99.90
2022-09-18T04:32:29.966Z,99.90
2022-09-18T04:34:56.621Z,99.90
2022-09-18T04:37:23.319Z,99.90
2022-09-18T04:39:50.089Z,99.90
2022-09-18T04:42:16.780Z,99.90
2022-09-18T04:44:43.436Z,99.90
2022-09-18T04:47:10.122Z,99.90
2022-09-18T04:49:36.825Z,99.90
2022-09-18T04:52:03.573Z,99.90
2022-09-18T04:54:30.310Z,99.90
2022-09-18T04:56:56.936Z,99.90
2022-09-18T04:59:23.630Z,99.90
2022-09-18T05:01:50.346Z,99.90
2022-09-18T05:04:17.170Z,99.90
2022-09-18T05:06:43.831Z,99.90
2022-09-18T05:09:10.468Z,99.90
2022-09-18T05:11:37.176Z,99.90
2022-09-18T05:14:03.904Z,99.90
2022-09-18T05:16:30.702Z,99.90
2022-09-18T05:18:57.374Z,99.90
2022-09-18T05:21:25.106Z,99.90
2022-09-18T05:23:51.756Z,99.90
2022-09-18T05:26:18.414Z,99.90
2022-09-18T05:28:48.392Z,99.90
2022-09-18T05:31:16.188Z,99.90
2022-09-18T05:33:43.054Z,99.90
2022-09-18T05:36:10.826Z,99.90
2022-09-18T05:38:37.503Z,99.90
2022-09-18T05:41:04.435Z,99.90
2022-09-18T05:43:31.337Z,99.90
2022-09-18T05:46:00.280Z,99.90
2022-09-18T05:48:26.937Z,99.90
2022-09-18T05:50:53.648Z,99.90
2022-09-18T05:53:21.784Z,99.90
2022-09-18T05:55:48.665Z,99.90
2022-09-18T05:58:17.805Z,99.90
2022-09-18T06:00:45.155Z,99.90
2022-09-18T06:03:14.797Z,99.90
2022-09-18T06:05:42.193Z,99.90
2022-09-18T06:08:11.452Z,99.90
2022-09-18T06:10:40.424Z,99.90
2022-09-18T06:13:13.936Z,99.90
2022-09-18T06:15:40.663Z,99.90
2022-09-18T06:18:10.428Z,99.90
2022-09-18T06:20:37.138Z,99.90
2022-09-18T06:23:04.000Z,99.90
2022-09-18T06:25:31.245Z,99.90
2022-09-18T06:28:00.133Z,99.90
2022-09-18T06:30:32.141Z,99.90
2022-09-18T06:33:16.956Z,99.90
2022-09-18T06:35:44.204Z,99.90
2022-09-18T06:38:10.896Z,99.90
2022-09-18T06:40:37.629Z,99.90
2022-09-18T06:43:04.424Z,99.90
2022-09-18T06:45:32.383Z,99.90
2022-09-18T06:48:03.316Z,99.90
2022-09-18T06:50:30.863Z,99.90
2022-09-18T06:53:12.254Z,99.90
2022-09-18T06:55:39.501Z,99.90
2022-09-18T06:58:06.304Z,99.90
2022-09-18T07:00:33.149Z,99.90
2022-09-18T07:03:01.855Z,99.90
2022-09-18T07:05:30.848Z,99.90
2022-09-18T07:07:57.556Z,99.90
2022-09-18T07:10:25.058Z,99.90
2022-09-18T07:12:59.607Z,99.90
2022-09-18T07:15:26.965Z,99.90
2022-09-18T07:17:58.541Z,99.90
2022-09-18T07:20:25.807Z,99.90
2022-09-18T07:22:58.254Z,99.90
2022-09-18T07:25:27.005Z,99.90
2022-09-18T07:27:53.707Z,99.90
2022-09-18T07:30:21.064Z,99.90
2022-09-18T07:32:48.320Z,99.90
2022-09-18T07:35:15.065Z,99.90
2022-09-18T07:37:41.759Z,99.90
2022-09-18T07:40:09.701Z,99.90
2022-09-18T07:42:36.702Z,99.90
2022-09-18T07:45:05.998Z,99.90
2022-09-18T07:47:32.865Z,99.90
2022-09-18T07:49:59.574Z,99.90
2022-09-18T07:52:26.209Z,99.90
2022-09-18T07:54:52.890Z,99.90
2022-09-18T07:57:19.651Z,99.90
2022-09-18T07:59:46.580Z,99.90
2022-09-18T08:02:13.344Z,99.90
2022-09-18T08:04:40.412Z,99.90
2022-09-18T08:07:07.120Z,99.90
2022-09-18T08:09:33.816Z,99.90
2022-09-18T08:12:00.769Z,99.90
2022-09-18T08:14:29.140Z,99.90
2022-09-18T08:16:56.661Z,99.90
2022-09-18T08:19:23.450Z,99.90
2022-09-18T08:21:50.163Z,99.90
2022-09-18T08:24:17.469Z,99.90
2022-09-18T08:26:44.830Z,99.90
2022-09-18T08:29:18.714Z,99.90
2022-09-18T08:31:48.537Z,99.90
2022-09-18T08:34:15.421Z,99.90
2022-09-18T08:36:42.167Z,99.90
2022-09-18T08:39:08.901Z,99.90
2022-09-18T08:42:04.852Z,99.90
2022-09-18T08:44:48.849Z,99.90
2022-09-18T08:47:22.434Z,99.90
2022-09-18T08:49:55.290Z,99.90
2022-09-18T08:52:24.582Z,99.90
2022-09-18T08:55:06.262Z,99.90
2022-09-18T08:57:35.493Z,99.90
2022-09-18T09:00:22.564Z,99.90
2022-09-18T09:03:18.321Z,99.90
2022-09-18T09:06:15.677Z,99.90
2022-09-18T09:09:03.603Z,99.90
2022-09-18T09:11:47.085Z,99.90
2022-09-18T09:14:52.749Z,99.90
2022-09-18T09:17:45.872Z,99.90
2022-09-18T09:20:38.417Z,99.90
2022-09-18T09:23:14.493Z,99.90
2022-09-18T09:25:47.249Z,99.90
2022-09-18T09:28:22.419Z,99.90
2022-09-18T09:30:55.075Z,99.90
2022-09-18T09:33:31.066Z,99.90
2022-09-18T09:36:13.665Z,99.90
2022-09-18T09:38:50.388Z,99.90
2022-09-18T09:41:38.453Z,99.90
2022-09-18T09:44:23.985Z,99.90
2022-09-18T09:47:28.831Z,99.90
2022-09-18T09:50:33.149Z,99.90
2022-09-18T09:53:03.981Z,99.90
2022-09-18T09:55:44.516Z,99.90
2022-09-18T09:58:46.744Z,99.90
2022-09-18T10:01:21.834Z,99.90
2022-09-18T10:03:55.781Z,99.90
2022-09-18T10:06:44.099Z,99.90
2022-09-18T10:10:06.036Z,99.90
2022-09-18T10:12:52.069Z,99.90
2022-09-18T10:15:28.702Z,99.90
2022-09-18T10:17:58.631Z,99.90
2022-09-18T10:20:28.575Z,99.90
2022-09-18T10:22:58.263Z,99.90
2022-09-18T10:25:35.561Z,99.90
2022-09-18T10:28:02.207Z,99.90
2022-09-18T10:30:29.286Z,99.90
2022-09-18T10:32:56.037Z,99.90
2022-09-18T10:35:28.532Z,99.90
2022-09-18T10:37:55.625Z,99.90
2022-09-18T10:40:48.525Z,99.90
2022-09-18T10:43:18.885Z,99.90
2022-09-18T10:45:52.309Z,99.90
2022-09-18T10:48:24.093Z,99.90
2022-09-18T10:51:00.193Z,99.90
2022-09-18T10:53:35.046Z,99.90
2022-09-18T10:56:14.964Z,99.90
2022-09-18T10:58:42.861Z,99.90
2022-09-18T11:01:10.847Z,99.90
2022-09-18T11:03:45.147Z,99.90
2022-09-18T11:06:23.852Z,99.90
2022-09-18T11:08:56.674Z,99.90
2022-09-18T11:11:28.176Z,99.90
2022-09-18T11:14:17.514Z,99.90
2022-09-18T11:16:49.485Z,99.90
2022-09-18T11:19:27.971Z,99.90
2022-09-18T11:21:56.679Z,99.90
2022-09-18T11:24:33.673Z,99.90
2022-09-18T11:27:20.220Z,99.90
2022-09-18T11:29:47.169Z,99.90
2022-09-18T11:32:26.369Z,99.90
2022-09-18T11:34:55.831Z,99.90
2022-09-18T11:37:30.873Z,99.90
2022-09-18T11:40:09.412Z,99.90
2022-09-18T11:42:44.946Z,99.90
2022-09-18T11:45:17.958Z,99.90
2022-09-18T11:48:10.445Z,99.90
2022-09-18T11:50:39.072Z,99.90
2022-09-18T11:53:15.228Z,99.90
2022-09-18T11:55:48.026Z,99.90
2022-09-18T11:58:29.793Z,99.90
2022-09-18T12:01:17.704Z,99.90
2022-09-18T12:04:01.070Z,98.90
2022-09-18T12:06:48.561Z,99.90
2022-09-18T12:09:28.960Z,99.90
2022-09-18T12:12:31.982Z,99.90
2022-09-18T12:15:11.884Z,99.00
2022-09-18T12:17:51.065Z,99.50
2022-09-18T12:20:29.662Z,98.50
2022-09-18T12:22:58.464Z,96.10
2022-09-18T12:25:42.406Z,97.90
2022-09-18T12:28:23.653Z,97.10
2022-09-18T12:31:06.291Z,96.10
2022-09-18T12:33:53.682Z,94.90
2022-09-18T12:36:40.555Z,92.80
2022-09-18T12:39:20.758Z,91.80
2022-09-18T12:41:59.517Z,89.80
2022-09-18T12:44:38.476Z,90.90
2022-09-18T12:47:33.113Z,88.70
2022-09-18T12:50:13.993Z,81.90
2022-09-18T12:53:09.485Z,87.00
2022-09-18T12:56:00.174Z,78.80
2022-09-18T12:58:46.745Z,81.90
2022-09-18T13:01:33.406Z,79.40
2022-09-18T13:04:22.447Z,82.30
2022-09-18T13:07:02.623Z,78.30
2022-09-18T13:09:49.848Z,80.90
2022-09-18T13:12:35.734Z,80.50
2022-09-18T13:15:23.537Z,84.20
2022-09-18T13:17:55.327Z,80.70
2022-09-18T13:20:27.117Z,78.30
2022-09-18T13:22:55.515Z,76.50
2022-09-18T13:25:27.268Z,79.20
2022-09-18T13:27:55.070Z,78.80
2022-09-18T13:30:30.385Z,83.20
2022-09-18T13:32:59.068Z,77.40
2022-09-18T13:35:30.011Z,79.80
2022-09-18T13:38:15.528Z,82.80
2022-09-18T13:40:46.459Z,77.50
2022-09-18T13:43:53.701Z,77.80
2022-09-18T13:46:32.240Z,79.30
2022-09-18T13:49:02.431Z,76.70
2022-09-18T13:51:32.680Z,78.90
2022-09-18T13:54:16.078Z,76.00
2022-09-18T13:57:09.468Z,74.60
2022-09-18T13:59:55.840Z,73.30
2022-09-18T14:02:27.446Z,71.80
2022-09-18T14:05:04.358Z,69.40
2022-09-18T14:07:31.127Z,64.30
2022-09-18T14:10:04.765Z,61.70
2022-09-18T14:12:36.084Z,59.10
2022-09-18T14:15:19.420Z,59.30
2022-09-18T14:18:14.930Z,60.10
2022-09-18T14:20:49.240Z,60.00
2022-09-18T14:24:01.020Z,62.80
2022-09-18T14:26:39.847Z,65.50
2022-09-18T14:29:14.713Z,65.70
2022-09-18T14:31:41.523Z,69.30
2022-09-18T14:34:32.628Z,70.90
2022-09-18T14:37:25.272Z,72.70
2022-09-18T14:39:56.377Z,76.30
2022-09-18T14:42:32.653Z,75.40
2022-09-18T14:45:18.696Z,74.40
2022-09-18T14:47:47.524Z,75.40
2022-09-18T14:50:37.696Z,75.90
2022-09-18T14:53:21.179Z,77.90
2022-09-18T14:55:55.387Z,78.00
2022-09-18T14:58:23.201Z,78.60
2022-09-18T15:00:55.870Z,79.60
2022-09-18T15:03:30.590Z,79.60
2022-09-18T15:06:07.833Z,80.30
2022-09-18T15:08:35.717Z,80.70
2022-09-18T15:11:02.628Z,82.90
2022-09-18T15:13:33.033Z,86.00
2022-09-18T15:16:06.735Z,86.60
2022-09-18T15:18:42.584Z,81.50
2022-09-18T15:21:33.176Z,81.10
2022-09-18T15:24:02.317Z,79.80
2022-09-18T15:26:43.424Z,80.70
2022-09-18T15:29:40.370Z,80.90
2022-09-18T15:32:07.618Z,80.80
2022-09-18T15:34:43.309Z,85.60
2022-09-18T15:37:19.049Z,82.80
2022-09-18T15:39:52.101Z,84.80
2022-09-18T15:42:34.555Z,88.20
2022-09-18T15:45:01.165Z,84.70
2022-09-18T15:47:38.266Z,84.80
2022-09-18T15:50:15.253Z,86.50
2022-09-18T15:52:41.853Z,83.00
2022-09-18T15:55:16.420Z,87.70
2022-09-18T15:57:49.017Z,86.00
2022-09-18T16:00:20.731Z,86.10
2022-09-18T16:02:59.518Z,86.10
2022-09-18T16:05:28.197Z,89.70
2022-09-18T16:07:58.520Z,88.10
2022-09-18T16:10:34.675Z,90.50
2022-09-18T16:13:08.431Z,91.90
2022-09-18T16:15:35.626Z,92.70
2022-09-18T16:18:27.408Z,91.50
2022-09-18T16:20:57.879Z,92.50
2022-09-18T16:23:33.310Z,91.60
2022-09-18T16:26:13.834Z,91.80
2022-09-18T16:28:49.511Z,92.10
2022-09-18T16:31:21.643Z,90.40
2022-09-18T16:34:21.718Z,90.10
2022-09-18T16:36:49.170Z,92.10
2022-09-18T16:39:18.989Z,92.60
2022-09-18T16:41:45.944Z,92.60
2022-09-18T16:44:14.505Z,92.30
2022-09-18T16:46:42.806Z,92.70
2022-09-18T16:49:17.775Z,94.20
2022-09-18T16:51:44.456Z,93.90
2022-09-18T16:54:11.305Z,94.70
2022-09-18T16:56:51.789Z,93.30
2022-09-18T16:59:22.935Z,93.70
2022-09-18T17:02:03.501Z,93.80
2022-09-18T17:04:31.753Z,93.50
2022-09-18T17:06:58.519Z,94.10
2022-09-18T17:09:25.360Z,93.00
2022-09-18T17:11:53.021Z,95.30
2022-09-18T17:14:20.039Z,94.30
2022-09-18T17:16:46.910Z,94.60
2022-09-18T17:19:13.957Z,95.20
2022-09-18T17:21:41.680Z,95.80
2022-09-18T17:24:09.741Z,96.50
2022-09-18T17:26:38.493Z,96.50
2022-09-18T17:29:05.961Z,96.90
2022-09-18T17:31:32.885Z,97.60
2022-09-18T17:34:00.842Z,97.40
2022-09-18T17:36:27.810Z,98.80
2022-09-18T17:38:54.501Z,98.70
2022-09-18T17:41:21.364Z,98.80
2022-09-18T17:43:53.032Z,98.60
2022-09-18T17:46:20.384Z,98.00
2022-09-18T17:48:47.160Z,99.10
2022-09-18T17:51:18.440Z,99.10
2022-09-18T17:53:48.441Z,99.20
2022-09-18T17:56:20.083Z,99.90
2022-09-18T17:58:47.440Z,99.90
2022-09-18T18:01:20.225Z,99.90
2022-09-18T18:03:48.476Z,99.90
2022-09-18T18:06:21.560Z,99.90
2022-09-18T18:08:50.015Z,99.90
2022-09-18T18:11:19.050Z,99.90
2022-09-18T18:13:47.595Z,99.90
2022-09-18T18:16:23.309Z,99.90
2022-09-18T18:18:55.545Z,99.90
2022-09-18T18:21:22.944Z,99.90
2022-09-18T18:23:58.025Z,99.90
2022-09-18T18:26:24.983Z,99.90
2022-09-18T18:28:51.648Z,99.90
2022-09-18T18:31:18.367Z,99.90
2022-09-18T18:33:45.107Z,99.90
2022-09-18T18:36:17.680Z,99.90
2022-09-18T18:38:48.034Z,99.90
2022-09-18T18:41:16.416Z,99.90
2022-09-18T18:43:44.583Z,99.90
2022-09-18T18:46:14.289Z,99.90
2022-09-18T18:48:42.393Z,99.90
2022-09-18T18:51:13.462Z,99.90
2022-09-18T18:53:41.265Z,99.90
2022-09-18T18:56:10.432Z,99.90
2022-09-18T18:58:37.221Z,99.90
2022-09-18T19:01:14.280Z,99.90
2022-09-18T19:03:45.325Z,99.90
2022-09-18T19:06:12.098Z,99.50
2022-09-18T19:08:38.851Z,99.90
2022-09-18T19:11:06.771Z,99.90
2022-09-18T19:13:41.236Z,99.90
2022-09-18T19:16:08.103Z,99.90
2022-09-18T19:18:35.068Z,99.30
2022-09-18T19:21:01.804Z,97.50
2022-09-18T19:23:28.641Z,96.80
2022-09-18T19:26:00.093Z,97.40
2022-09-18T19:28:30.150Z,95.50
2022-09-18T19:31:04.462Z,94.70
2022-09-18T19:33:33.205Z,95.70
2022-09-18T19:36:07.074Z,94.70
2022-09-18T19:38:36.998Z,95.00
2022-09-18T19:41:14.060Z,94.10
2022-09-18T19:43:40.961Z,95.20
2022-09-18T19:46:12.707Z,93.90
2022-09-18T19:48:39.532Z,95.20
2022-09-18T19:51:08.243Z,95.10
2022-09-18T19:53:35.453Z,95.10
2022-09-18T19:56:15.072Z,94.10
2022-09-18T19:58:53.435Z,94.60
2022-09-18T20:01:20.998Z,94.30
2022-09-18T20:03:52.645Z,94.00
2022-09-18T20:06:19.885Z,94.40
2022-09-18T20:08:46.863Z,94.10
2022-09-18T20:11:13.531Z,94.10
2022-09-18T20:13:40.245Z,94.30
2022-09-18T20:16:09.747Z,96.80
2022-09-18T20:18:37.799Z,96.00
2022-09-18T20:21:09.475Z,97.00
2022-09-18T20:23:37.094Z,96.80
2022-09-18T20:26:08.992Z,95.80
2022-09-18T20:28:36.544Z,96.10
2022-09-18T20:31:12.605Z,95.90
2022-09-18T20:33:39.602Z,99.40
2022-09-18T20:36:09.794Z,99.90
2022-09-18T20:38:39.867Z,99.90
2022-09-18T20:41:11.121Z,99.90
2022-09-18T20:43:39.659Z,99.90
2022-09-18T20:46:08.319Z,99.90
2022-09-18T20:48:36.674Z,99.90
2022-09-18T20:51:09.127Z,99.40
2022-09-18T20:53:39.178Z,99.50
2022-09-18T20:56:07.464Z,99.70
2022-09-18T20:58:35.523Z,99.50
2022-09-18T21:01:13.989Z,99.00
2022-09-18T21:03:45.446Z,98.90
2022-09-18T21:06:23.355Z,99.90
2022-09-18T21:08:53.652Z,99.90
2022-09-18T21:11:23.875Z,99.90
2022-09-18T21:13:56.733Z,99.90
2022-09-18T21:16:26.131Z,99.90
2022-09-18T21:18:56.184Z,99.90
2022-09-18T21:21:24.304Z,99.90
2022-09-18T21:23:53.705Z,99.90
2022-09-18T21:26:21.453Z,99.90
2022-09-18T21:28:56.828Z,99.90
2022-09-18T21:31:24.614Z,99.90
2022-09-18T21:33:53.014Z,99.90
2022-09-18T21:36:24.389Z,99.90
2022-09-18T21:38:52.733Z,99.90
2022-09-18T21:41:21.095Z,99.90
2022-09-18T21:43:51.054Z,99.90
2022-09-18T21:46:20.900Z,99.90
2022-09-18T21:48:48.800Z,99.90
2022-09-18T21:51:17.088Z,99.90
2022-09-18T21:53:44.663Z,99.90
2022-09-18T21:56:17.280Z,99.90
2022-09-18T21:58:45.450Z,99.90
2022-09-18T22:01:19.243Z,99.90
2022-09-18T22:03:56.206Z,99.90
2022-09-18T22:06:51.183Z,99.90
2022-09-18T22:09:20.826Z,99.90
2022-09-18T22:11:49.153Z,99.90
2022-09-18T22:14:29.794Z,99.90
2022-09-18T22:16:56.509Z,99.90
2022-09-18T22:19:23.287Z,99.90
2022-09-18T22:21:51.464Z,99.90
2022-09-18T22:24:20.909Z,99.90
2022-09-18T22:26:56.301Z,99.90
2022-09-18T22:29:26.996Z,99.90
2022-09-18T22:31:53.677Z,99.90
2022-09-18T22:34:23.326Z,99.90
2022-09-18T22:36:50.842Z,99.90
2022-09-18T22:39:18.999Z,99.90
2022-09-18T22:41:45.703Z,99.90
2022-09-18T22:44:13.650Z,99.90
2022-09-18T22:46:42.270Z,99.90
2022-09-18T22:49:09.459Z,99.90
2022-09-18T22:51:36.125Z,99.90
2022-09-18T22:54:07.426Z,99.90
2022-09-18T22:56:41.531Z,99.90
2022-09-18T22:59:08.405Z,99.90
2022-09-18T23:01:46.043Z,99.90
2022-09-18T23:04:12.801Z,99.90
2022-09-18T23:06:39.516Z,99.90
2022-09-18T23:09:07.488Z,99.90
2022-09-18T23:11:34.935Z,99.90
2022-09-18T23:14:04.452Z,99.90
2022-09-18T23:16:33.035Z,99.90
2022-09-18T23:19:02.100Z,99.90
2022-09-18T23:21:31.706Z,99.90
2022-09-18T23:24:00.508Z,99.90
2022-09-18T23:26:39.290Z,99.90
2022-09-18T23:29:08.972Z,99.90
2022-09-18T23:31:39.882Z,99.90
2022-09-18T23:34:21.463Z,99.90
2022-09-18T23:36:51.651Z,99.90
2022-09-18T23:39:28.547Z,99.90
2022-09-18T23:41:56.326Z,99.90
2022-09-18T23:44:23.526Z,99.90
2022-09-18T23:46:50.601Z,99.90
2022-09-18T23:49:23.341Z,99.90
2022-09-18T23:51:52.249Z,99.90
2022-09-18T23:54:21.539Z,99.90
2022-09-18T23:56:48.851Z,99.90
2022-09-18T23:59:20.746Z,99.90
